Latest Weather Observations for Avalon

IDV60801

Issued at 2:35 pm EDT Tuesday 21 October 2014 (issued every 30 minutes, with the page automatically refreshed every 10 minutes)

About weather observations | Map of weather stations | Latest weather observations for VIC | Other Formats
Station Details ID: 087113 Name: AVALON AIRPORT Lat: -38.03 Lon: 144.48 Height: 10.6 m
Data from the previous 72 hours. | See also: Recent months at Avalon
Date/Time
EDT
Temp
°C
App
Temp
°C
Dew
Point
Rel
Hum
%
Delta-T
°C
Wind Press
QNH
hPa
Press
MSL
hPa
Rain
since 9 am
mm
Dir
 
Spd
km/h
Gust
km/h
Spd
kts
Gust
kts
21/02:30pm 22.1 16.6 10.6 48 6.3 SE 30 35 16 19 1024.1 1024.1 0.0
21/02:00pm 22.4 17.6 11.8 51 5.9 SE 28 35 15 19 1024.7 1024.7 0.0
21/01:30pm 21.2 16.6 11.2 53 5.5 SE 26 33 14 18 1025.2 1025.2 0.0
21/01:00pm 20.8 16.4 10.3 51 5.7 SE 24 30 13 16 1025.8 1025.8 0.0
21/12:30pm 19.1 14.6 9.9 55 4.9 ESE 24 30 13 16 1026.0 1026.0 0.0
21/12:00pm 18.8 14.5 10.9 60 4.3 ESE 24 30 13 16 1026.1 1026.1 0.0
21/11:30am 17.7 14.1 10.6 63 3.8 ESE 20 28 11 15 1026.4 1026.4 0.0
21/11:00am 16.8 13.4 10.4 66 3.4 ESE 19 26 10 14 1026.7 1026.7 0.0
21/10:30am 15.5 12.0 10.1 70 2.8 E 19 24 10 13 1027.1 1027.1 0.0
21/10:00am 14.8 10.9 9.4 70 2.8 E 20 24 11 13 1027.3 1027.3 0.0
21/09:30am 13.7 9.7 9.0 73 2.4 E 20 24 11 13 1027.4 1027.4 0.0
21/09:00am 12.8 9.9 8.3 74 2.2 E 13 17 7 9 1027.5 1027.5 0.0
21/08:30am 11.8 9.8 8.8 82 1.5 E 9 13 5 7 1027.3 1027.3 0.0
21/08:00am 9.1 8.7 8.3 95 0.4 CALM 0 0 0 0 1027.0 1027.0 0.0
21/07:30am 6.9 6.1 6.3 96 0.3 CALM 0 0 0 0 1026.8 1026.8 0.0
21/07:00am 5.8 4.4 5.4 97 0.2 NW 2 6 1 3 1026.6 1026.6 0.0
21/06:30am 4.8 2.4 4.1 95 0.3 NW 6 9 3 5 1026.3 1026.3 0.0
21/06:00am 5.9 4.8 5.2 95 0.3 NW 0 0 0 0 1026.1 1026.1 0.0
21/05:30am 5.7 3.3 4.5 92 0.5 NNW 6 6 3 3 1025.9 1025.9 0.0
21/05:00am 6.5 4.0 4.7 88 0.8 NNE 7 9 4 5 1026.2 1026.2 0.0
21/04:30am 8.6 5.8 7.1 90 0.7 E 11 13 6 7 1025.9 1025.9 0.0
21/04:00am 9.2 6.5 7.2 87 0.9 E 11 13 6 7 1026.0 1026.0 0.0
21/03:30am 10.3 6.5 7.7 84 1.2 ESE 17 20 9 11 1026.4 1026.4 0.0
21/03:00am 11.1 6.5 8.0 81 1.5 ESE 22 28 12 15 1026.6 1026.6 0.0
21/02:30am 11.5 5.3 8.0 79 1.7 ESE 30 37 16 20 1026.7 1026.7 0.0
21/02:00am 11.5 5.3 7.8 78 1.8 ESE 30 41 16 22 1026.9 1026.9 0.0
21/01:30am 11.9 5.7 7.8 76 2.0 ESE 30 39 16 21 1027.3 1027.3 0.0
21/01:00am 12.1 5.3 7.6 74 2.2 ESE 33 44 18 24 1027.8 1027.8 0.0
21/12:30am 12.2 5.4 7.5 73 2.3 ESE 33 46 18 25 1028.0 1028.0 0.0
21/12:00am 12.4 5.6 7.7 73 2.3 ESE 33 46 18 25 1028.3 1028.3 0.0
 
Date/Time
EDT
Temp
°C
App
Temp
°C
Dew
Point
Rel
Hum
%
Delta-T
°C
Wind Press
QNH
hPa
Press
MSL
hPa
Rain
since 9 am
mm
Dir
 
Spd
km/h
Gust
km/h
Spd
kts
Gust
kts
20/11:30pm 12.3 6.4 7.6 73 2.3 SE 28 37 15 20 1028.5 1028.5 0.0
20/11:00pm 12.5 6.7 7.8 73 2.3 SE 28 39 15 21 1028.8 1028.8 0.0
20/10:30pm 12.3 8.1 8.2 76 2.0 SE 20 30 11 16 1028.9 1028.9 0.0
20/10:00pm 13.1 6.8 7.5 69 2.7 E 30 41 16 22 1028.7 1028.7 0.0
20/09:30pm 12.9 8.5 8.8 76 2.1 SE 22 26 12 14 1028.8 1028.8 0.0
20/09:00pm 13.2 8.9 9.3 77 2.0 SE 22 28 12 15 1028.7 1028.7 0.0
20/08:30pm 13.5 8.8 9.2 75 2.2 SSE 24 33 13 18 1028.3 1028.3 0.0
20/08:00pm 13.7 9.0 9.2 74 2.3 SSE 24 32 13 17 1028.0 1028.0 0.0
20/07:30pm 14.4 9.7 9.2 71 2.7 SSE 24 33 13 18 1028.0 1028.0 0.0
20/07:00pm 15.3 9.8 9.2 67 3.1 SSE 28 35 15 19 1027.8 1027.8 0.0
20/06:30pm 16.0 10.1 9.2 64 3.5 SSE 30 37 16 20 1027.8 1027.8 0.0
20/06:00pm 17.0 10.8 9.4 61 3.9 SSE 32 37 17 20 1028.0 1028.0 0.0
20/05:30pm 17.7 12.1 8.8 56 4.6 SSE 28 35 15 19 1028.0 1028.0 0.0
20/05:00pm 17.9 12.3 8.7 55 4.7 SSE 28 37 15 20 1028.0 1028.0 0.0
20/04:30pm 18.0 12.5 9.1 56 4.6 S 28 39 15 21 1028.3 1028.3 0.0
20/04:00pm 17.9 12.3 8.7 55 4.7 S 28 39 15 21 1028.4 1028.4 0.0
20/03:30pm 17.9 11.7 7.9 52 5.1 SSE 30 41 16 22 1028.7 1028.7 0.0
20/03:00pm 18.9 13.3 8.6 51 5.3 S 28 41 15 22 1028.8 1028.8 0.0
20/02:30pm 17.9 12.9 6.4 47 5.7 SSE 22 30 12 16 1029.1 1029.1 0.0
20/02:00pm 17.3 12.2 5.9 47 5.5 SE 22 33 12 18 1029.5 1029.5 0.0
20/01:30pm 16.5 11.0 4.2 44 5.8 SE 22 32 12 17 1029.9 1029.9 0.0
20/01:00pm 16.8 11.0 4.2 43 5.9 SE 24 33 13 18 1030.0 1030.0 0.0
20/12:30pm 16.3 10.0 4.0 44 5.7 SE 26 35 14 19 1030.2 1030.2 0.0
20/12:00pm 16.4 9.9 4.8 46 5.4 SE 28 37 15 20 1030.6 1030.6 0.0
20/11:30am 15.4 8.6 3.2 44 5.5 SE 28 37 15 20 1030.9 1030.9 0.0
20/11:00am 15.1 7.3 1.6 40 5.9 SE 32 39 17 21 1031.1 1031.1 0.0
20/10:30am 15.2 8.1 3.7 46 5.3 SE 30 41 16 22 1031.2 1031.2 0.0
20/10:00am 14.6 7.5 3.4 47 5.0 SE 30 39 16 21 1031.2 1031.2 0.0
20/09:30am 14.0 6.5 3.2 48 4.8 ESE 32 39 17 21 1031.2 1031.2 0.0
20/09:00am 13.7 6.1 2.6 47 4.9 ESE 32 41 17 22 1031.2 1031.2 0.0
20/08:30am 13.0 5.8 0.7 43 5.2 ESE 28 35 15 19 1030.8 1030.8 0.0
20/08:00am 11.3 6.2 4.1 61 3.2 SE 20 30 11 16 1030.9 1030.9 0.0
20/07:30am 11.5 5.9 3.5 58 3.5 SE 22 30 12 16 1030.4 1030.4 0.0
20/07:00am 11.4 4.7 3.7 59 3.4 SE 28 37 15 20 1030.3 1030.3 0.0
20/06:30am 11.4 5.8 5.3 66 2.8 SE 24 33 13 18 1030.0 1030.0 0.0
20/06:00am 10.7 5.5 3.5 61 3.1 SE 20 26 11 14 1029.7 1029.7 0.0
20/05:30am 10.4 5.1 5.0 69 2.4 SE 22 28 12 15 1029.7 1029.7 0.0
20/05:00am 10.7 5.5 5.7 71 2.3 SE 22 32 12 17 1029.5 1029.5 0.0
20/04:30am 11.2 5.7 6.1 71 2.4 SE 24 32 13 17 1029.3 1029.3 0.0
20/04:00am 10.4 5.9 6.2 75 1.9 SE 19 24 10 13 1029.2 1029.2 0.0
20/03:30am 10.6 6.2 6.7 77 1.8 SSE 19 26 10 14 1029.2 1029.2 0.0
20/03:00am 10.5 5.9 6.5 76 1.9 SSE 20 24 11 13 1029.3 1029.3 0.0
20/02:30am 11.8 6.2 7.1 73 2.3 SSE 26 35 14 19 1029.3 1029.3 0.0
20/02:00am 12.1 7.0 7.8 75 2.1 SSE 24 33 13 18 1029.4 1029.4 0.0
20/01:30am 12.3 6.8 7.6 73 2.3 SSE 26 32 14 17 1029.5 1029.5 0.0
20/01:00am 12.5 7.8 7.8 73 2.3 S 22 28 12 15 1029.5 1029.5 0.0
20/12:30am 12.5 7.9 8.0 74 2.2 S 22 32 12 17 1029.7 1029.7 0.0
20/12:00am 12.4 7.4 8.1 75 2.1 S 24 30 13 16 1029.4 1029.4 0.0
 
Date/Time
EDT
Temp
°C
App
Temp
°C
Dew
Point
Rel
Hum
%
Delta-T
°C
Wind Press
QNH
hPa
Press
MSL
hPa
Rain
since 9 am
mm
Dir
 
Spd
km/h
Gust
km/h
Spd
kts
Gust
kts
19/11:30pm 12.3 6.4 9.0 80 1.7 S 30 35 16 19 1029.2 1029.2 0.0
19/11:00pm 12.6 6.7 9.1 79 1.7 S 30 35 16 19 1029.0 1029.0 0.0
19/10:41pm 12.2 6.0 9.9 86 1.2 S 33 48 18 26 1028.7 1028.7 0.0
19/10:30pm 12.8 6.7 9.8 82 1.5 S 32 41 17 22 1028.6 1028.6 0.0
19/10:03pm 13.1 7.0 10.5 84 1.4 S 33 46 18 25 1028.0 1028.0 0.0
19/10:00pm 13.1 7.2 10.5 84 1.3 S 32 46 17 25 1028.0 1028.0 0.0
19/09:56pm 13.2 8.1 10.6 84 1.4 S 28 46 15 25 1028.2 1028.2 0.0
19/09:30pm 13.8 9.6 11.0 83 1.5 S 24 32 13 17 1027.8 1027.8 0.0
19/09:00pm 14.3 8.9 10.9 80 1.8 SSW 30 35 16 19 1027.3 1027.3 0.0
19/08:30pm 14.3 9.3 10.9 80 1.8 SSW 28 37 15 20 1026.4 1026.4 0.0
19/08:00pm 14.2 9.5 10.8 80 1.8 S 26 32 14 17 1025.4 1025.4 0.0
19/07:30pm 14.3 10.0 10.9 80 1.8 S 24 33 13 18 1024.4 1024.4 0.0
19/07:00pm 15.0 9.1 11.0 77 2.1 SSW 33 43 18 23 1024.4 1024.4 0.0
19/06:30pm 15.2 9.4 11.6 79 1.9 SSW 33 43 18 23 1023.7 1023.7 0.0
19/06:00pm 15.6 9.7 11.2 75 2.3 SSW 33 43 18 23 1022.9 1022.9 0.0
19/05:30pm 15.7 8.7 11.3 75 2.4 SSW 39 48 21 26 1022.3 1022.3 0.0
19/05:00pm 16.1 10.5 11.5 74 2.5 S 32 41 17 22 1021.6 1021.6 0.0
19/04:30pm 16.4 10.9 12.4 77 2.2 S 33 43 18 23 1021.1 1021.1 0.0
19/04:00pm 16.0 10.4 12.0 77 2.2 S 33 41 18 22 1020.1 1020.1 0.0
19/03:30pm 17.0 10.2 11.9 72 2.8 S 39 46 21 25 1020.0 1020.0 0.0
19/03:00pm 18.9 12.4 12.9 68 3.4 S 39 50 21 27 1019.5 1019.5 0.0
19/02:30pm 18.0 11.7 12.2 69 3.2 S 37 46 20 25 1019.4 1019.4 0.0
19/02:28pm 18.4 12.5 12.4 68 3.3 S 35 46 19 25 1019.2 1019.2 0.0
19/02:09pm 23.5 19.2 9.5 41 7.6 SSW 22 30 12 16 1019.1 1019.1 0.0
19/02:00pm 30.3 22.3 1.7 16 14.1 WNW 33 44 18 24 1018.5 1018.5 0.0
19/01:41pm 29.9 21.7 0.5 15 14.1 NW 33 52 18 28 1018.2 1018.2 0.0
19/01:30pm 29.3 22.3 1.7 17 13.5 NW 28 39 15 21 1018.3 1018.3 0.0
19/01:00pm 28.3 22.8 1.7 18 12.9 NW 20 24 11 13 1018.5 1018.5 0.0
19/12:44pm 28.2 21.2 1.7 18 12.9 NNW 28 43 15 23 1018.4 1018.4 0.0
19/12:30pm 28.6 23.0 1.2 17 13.2 N 20 24 11 13 1018.7 1018.7 0.0
19/12:00pm 28.9 22.2 1.4 17 13.3 N 26 37 14 20 1019.0 1019.0 0.0
19/11:30am 28.1 21.5 2.3 19 12.7 N 26 35 14 19 1019.2 1019.2 0.0
19/11:00am 25.7 19.7 3.6 24 10.9 NNE 24 32 13 17 1019.6 1019.6 0.0
19/10:30am 23.4 17.4 3.4 27 9.7 N 24 33 13 18 1019.7 1019.7 0.0
19/10:00am 22.8 16.1 3.9 29 9.2 N 28 35 15 19 1020.0 1020.0 0.0
19/09:30am 22.1 15.0 3.7 30 8.9 N 30 37 16 20 1020.2 1020.2 0.0
19/09:00am 21.6 15.4 4.2 32 8.4 N 26 35 14 19 1020.5 1020.5 0.0
19/08:30am 21.0 15.6 4.6 34 8.0 N 22 28 12 15 1020.3 1020.3 0.0
19/08:00am 20.4 15.3 4.0 34 7.8 N 20 26 11 14 1020.4 1020.4 0.0
19/07:30am 20.5 16.3 3.7 33 8.0 N 15 20 8 11 1020.1 1020.1 0.0
19/07:00am 19.6 15.7 3.3 34 7.6 N 13 19 7 10 1019.6 1019.6 0.0
19/06:30am 19.0 15.6 4.0 37 7.1 N 11 15 6 8 1019.0 1019.0 0.0
19/06:00am 19.2 14.4 4.6 38 7.0 N 19 24 10 13 1018.7 1018.7 0.0
19/05:30am 19.6 13.9 4.9 38 7.1 N 24 35 13 19 1018.8 1018.8 0.0
19/05:00am 20.2 13.0 5.1 37 7.4 N 32 43 17 23 1018.7 1018.7 0.0
19/04:30am 20.3 12.9 4.8 36 7.5 N 33 44 18 24 1018.8 1018.8 0.0
19/04:00am 20.7 12.1 4.7 35 7.8 N 39 52 21 28 1018.8 1018.8 0.0
19/03:32am 21.4 11.7 4.0 32 8.4 N 44 63 24 34 1018.9 1018.9 0.0
19/03:30am 21.6 11.6 4.2 32 8.5 N 46 63 25 34 1018.8 1018.8 0.0
19/03:10am 21.9 12.8 4.0 31 8.7 N 41 59 22 32 1018.8 1018.8 0.0
19/03:00am 21.9 12.7 3.6 30 8.8 N 41 56 22 30 1018.9 1018.9 0.0
19/02:30am 22.5 13.3 3.6 29 9.1 N 41 54 22 29 1019.0 1019.0 0.0
19/02:00am 22.5 14.7 3.1 28 9.3 N 33 43 18 23 1019.5 1019.5 0.0
19/01:39am 22.6 15.9 3.7 29 9.2 N 28 41 15 22 1019.7 1019.7 0.0
19/01:30am 18.9 15.0 5.4 41 6.6 NE 15 20 8 11 1019.9 1019.9 0.0
19/01:00am 18.3 16.0 5.8 44 6.1 E 7 9 4 5 1020.2 1020.2 0.0
19/12:30am 16.7 14.4 5.9 49 5.2 ESE 7 11 4 6 1020.2 1020.2 0.0
19/12:00am 17.9 14.8 5.5 44 6.0 N 11 17 6 9 1020.3 1020.3 0.0
 
Date/Time
EDT
Temp
°C
App
Temp
°C
Dew
Point
Rel
Hum
%
Delta-T
°C
Wind Press
QNH
hPa
Press
MSL
hPa
Rain
since 9 am
mm
Dir
 
Spd
km/h
Gust
km/h
Spd
kts
Gust
kts
18/11:30pm 18.3 14.4 5.5 43 6.2 NNE 15 24 8 13 1020.4 1020.4 0.0
18/11:00pm 18.7 14.8 5.5 42 6.4 N 15 20 8 11 1020.8 1020.8 0.0
18/10:30pm 19.8 15.0 5.5 39 7.0 NNE 20 28 11 15 1021.0 1021.0 0.0
18/10:00pm 20.0 14.4 5.3 38 7.2 NNE 24 32 13 17 1021.4 1021.4 0.0
18/09:30pm 20.1 15.2 5.0 37 7.4 NNE 20 26 11 14 1021.8 1021.8 0.0
18/09:00pm 20.7 15.7 4.7 35 7.8 NNE 20 26 11 14 1021.8 1021.8 0.0
18/08:30pm 21.3 16.0 4.8 34 8.1 NNE 22 28 12 15 1021.6 1021.6 0.0
18/08:00pm 21.6 17.0 5.5 35 8.0 NNE 19 26 10 14 1021.7 1021.7 0.0
18/07:30pm 22.1 17.6 5.9 35 8.2 NNE 19 24 10 13 1021.6 1021.6 0.0
18/07:00pm 22.8 18.3 6.1 34 8.4 N 19 24 10 13 1021.5 1021.5 0.0
18/06:30pm 24.5 19.9 6.3 31 9.4 N 20 26 11 14 1021.5 1021.5 0.0
18/06:00pm 24.9 20.1 5.7 29 9.8 NNW 20 30 11 16 1021.3 1021.3 0.0
18/05:30pm 26.0 21.5 6.1 28 10.3 NNW 19 28 10 15 1020.8 1020.8 0.0
18/05:00pm 25.9 21.5 6.5 29 10.1 N 19 28 10 15 1020.7 1020.7 0.0
18/04:30pm 26.0 21.4 6.6 29 10.1 N 20 30 11 16 1020.6 1020.6 0.0
18/04:00pm 25.9 20.6 7.0 30 9.9 N 24 32 13 17 1021.2 1021.2 0.0
18/03:30pm 24.7 19.1 5.5 29 9.8 N 24 37 13 20 1021.3 1021.3 0.0
18/03:00pm 23.4 17.9 3.9 28 9.5 N 22 30 12 16 1021.7 1021.7 0.0

Other Formats:

Comma delimited format used in spreadsheet applications
http://www.bom.gov.au/fwo/IDV60801/IDV60801.94854.axf

JavaScript Object Notation format (JSON) in row-major order
http://www.bom.gov.au/fwo/IDV60801/IDV60801.94854.json